createdAt,value
2022-10-17T00:01:01.492Z,7.17
2022-10-17T00:03:41.226Z,6.97
2022-10-17T00:06:15.170Z,7.23
2022-10-17T00:08:47.944Z,6.75
2022-10-17T00:11:22.159Z,6.60
2022-10-17T00:13:55.613Z,7.05
2022-10-17T00:16:33.911Z,7.03
2022-10-17T00:19:07.609Z,7.00
2022-10-17T00:21:40.108Z,6.78
2022-10-17T00:24:12.921Z,7.57
2022-10-17T00:26:45.524Z,7.93
2022-10-17T00:29:18.681Z,7.30
2022-10-17T00:31:56.956Z,7.40
2022-10-17T00:34:30.465Z,8.07
2022-10-17T00:37:02.971Z,7.20
2022-10-17T00:39:35.991Z,6.60
2022-10-17T00:42:11.043Z,6.47
2022-10-17T00:44:47.312Z,6.78
2022-10-17T00:47:21.153Z,7.03
2022-10-17T00:49:54.185Z,6.68
2022-10-17T00:52:27.832Z,7.05
2022-10-17T00:55:16.841Z,6.72
2022-10-17T00:57:49.462Z,7.30
2022-10-17T01:00:22.472Z,6.72
2022-10-17T01:02:55.102Z,6.70
2022-10-17T01:05:28.297Z,6.88
2022-10-17T01:08:01.339Z,7.45
2022-10-17T01:10:38.843Z,6.82
2022-10-17T01:13:18.740Z,6.38
2022-10-17T01:16:06.622Z,6.22
2022-10-17T01:18:39.177Z,7.18
2022-10-17T01:21:47.514Z,6.68
2022-10-17T01:24:25.975Z,6.30
2022-10-17T01:27:04.901Z,6.50
2022-10-17T01:29:47.547Z,6.30
2022-10-17T01:32:23.831Z,6.38
2022-10-17T01:35:16.647Z,6.95
2022-10-17T01:40:45.151Z,6.63
2022-10-17T01:43:24.266Z,8.15
2022-10-17T01:46:12.322Z,8.80
2022-10-17T01:48:46.671Z,7.43
2022-10-17T01:51:21.834Z,6.83
2022-10-17T01:54:15.810Z,6.50
2022-10-17T01:56:50.185Z,6.28
2022-10-17T01:59:25.063Z,6.40
2022-10-17T02:01:58.523Z,6.80
2022-10-17T02:04:31.470Z,6.15
2022-10-17T02:07:08.199Z,6.53
2022-10-17T02:09:41.143Z,6.20
2022-10-17T02:12:27.558Z,6.20
2022-10-17T02:15:19.379Z,5.97
2022-10-17T02:17:58.651Z,6.32
2022-10-17T02:20:47.637Z,6.37
2022-10-17T02:23:34.062Z,6.05
2022-10-17T02:26:25.322Z,5.93
2022-10-17T02:29:16.653Z,6.40
2022-10-17T02:31:55.482Z,6.10
2022-10-17T02:34:39.891Z,7.15
2022-10-17T02:37:15.543Z,5.90
2022-10-17T02:39:48.757Z,6.32
2022-10-17T02:42:22.811Z,6.50
2022-10-17T02:44:55.683Z,6.07
2022-10-17T02:47:46.956Z,6.60
2022-10-17T02:50:23.162Z,6.07
2022-10-17T02:52:58.650Z,6.40
2022-10-17T02:55:35.899Z,6.13
2022-10-17T02:58:15.753Z,6.05
2022-10-17T03:00:49.267Z,6.45
2022-10-17T03:03:24.348Z,5.65
2022-10-17T03:05:57.163Z,6.10
2022-10-17T03:08:31.965Z,6.18
2022-10-17T03:11:05.964Z,5.75
2022-10-17T03:13:40.037Z,6.00
2022-10-17T03:16:13.069Z,5.87
2022-10-17T03:18:49.337Z,5.47
2022-10-17T03:21:23.335Z,5.53
2022-10-17T03:23:57.680Z,6.07
2022-10-17T03:26:30.607Z,6.50
2022-10-17T03:29:04.626Z,5.68
2022-10-17T03:31:38.984Z,5.93
2022-10-17T03:34:13.458Z,6.03
2022-10-17T03:36:46.477Z,5.50
2022-10-17T03:39:19.652Z,6.03
2022-10-17T03:41:52.266Z,5.88
2022-10-17T03:44:25.118Z,5.97
2022-10-17T03:46:58.064Z,6.45
2022-10-17T03:49:31.420Z,5.90
2022-10-17T03:52:04.122Z,5.72
2022-10-17T03:54:37.151Z,5.50
2022-10-17T03:57:09.716Z,6.15
2022-10-17T03:59:42.970Z,6.22
2022-10-17T04:02:20.931Z,6.03
2022-10-17T04:04:55.220Z,6.32
2022-10-17T04:07:28.045Z,5.83
2022-10-17T04:10:00.927Z,5.63
2022-10-17T04:12:33.446Z,5.88
2022-10-17T04:15:06.722Z,5.85
2022-10-17T04:17:39.474Z,5.90
2022-10-17T04:20:13.495Z,6.03
2022-10-17T04:22:46.067Z,5.75
2022-10-17T04:25:19.505Z,6.13
2022-10-17T04:27:54.026Z,6.10
2022-10-17T04:30:27.178Z,5.73
2022-10-17T04:32:59.681Z,5.95
2022-10-17T04:35:34.456Z,5.93
2022-10-17T04:38:09.677Z,5.95
2022-10-17T04:40:43.174Z,6.10
2022-10-17T04:43:15.821Z,6.22
2022-10-17T04:45:50.521Z,5.97
2022-10-17T04:48:27.234Z,5.78
2022-10-17T04:51:04.734Z,6.10
2022-10-17T04:53:43.590Z,5.95
2022-10-17T04:56:18.642Z,6.18
2022-10-17T04:58:51.609Z,5.95
2022-10-17T05:01:24.652Z,6.07
2022-10-17T05:03:58.823Z,6.35
2022-10-17T05:06:33.215Z,6.20
2022-10-17T05:09:32.768Z,5.68
2022-10-17T05:12:08.058Z,5.85
2022-10-17T05:14:44.964Z,5.97
2022-10-17T05:17:17.913Z,6.53
2022-10-17T05:19:50.564Z,6.25
2022-10-17T05:22:23.782Z,5.68
2022-10-17T05:24:56.551Z,6.03
2022-10-17T05:27:29.746Z,6.38
2022-10-17T05:30:02.276Z,5.82
2022-10-17T05:32:39.269Z,6.20
2022-10-17T05:35:13.528Z,6.05
2022-10-17T05:37:47.778Z,5.68
2022-10-17T05:40:22.023Z,6.03
2022-10-17T05:42:57.598Z,5.55
2022-10-17T05:45:31.669Z,5.97
2022-10-17T05:48:05.179Z,6.05
2022-10-17T05:50:38.708Z,5.65
2022-10-17T05:53:17.755Z,6.53
2022-10-17T05:55:58.269Z,5.85
2022-10-17T05:58:49.125Z,6.28
2022-10-17T06:01:38.708Z,6.57
2022-10-17T06:04:11.531Z,5.75
2022-10-17T06:06:44.153Z,6.43
2022-10-17T06:09:17.178Z,5.90
2022-10-17T06:11:53.091Z,6.57
2022-10-17T06:14:26.377Z,5.78
2022-10-17T06:17:03.057Z,6.50
2022-10-17T06:19:36.273Z,6.50
2022-10-17T06:22:09.092Z,6.35
2022-10-17T06:24:43.020Z,6.05
2022-10-17T06:27:16.940Z,6.03
2022-10-17T06:29:51.570Z,6.38
2022-10-17T06:32:24.155Z,6.47
2022-10-17T06:34:57.016Z,6.60
2022-10-17T06:37:36.322Z,6.33
2022-10-17T06:40:15.503Z,6.68
2022-10-17T06:42:48.399Z,6.55
2022-10-17T06:45:41.033Z,8.52
2022-10-17T06:48:20.950Z,8.48
2022-10-17T06:51:12.435Z,7.50
2022-10-17T06:53:58.610Z,7.47
2022-10-17T06:57:00.598Z,6.40
2022-10-17T06:59:47.949Z,6.17
2022-10-17T07:02:28.441Z,5.85
2022-10-17T07:05:03.470Z,6.10
2022-10-17T07:07:40.077Z,6.35
2022-10-17T07:10:15.772Z,6.03
2022-10-17T07:12:48.577Z,7.85
2022-10-17T07:15:21.203Z,6.57
2022-10-17T07:17:54.055Z,9.88
2022-10-17T07:20:26.941Z,20.75
2022-10-17T07:23:00.235Z,38.72
2022-10-17T07:25:35.256Z,19.77
2022-10-17T07:28:14.634Z,43.07
2022-10-17T07:30:50.711Z,24.20
2022-10-17T07:33:26.541Z,10.88
2022-10-17T07:36:00.367Z,10.68
2022-10-17T07:38:33.436Z,7.70
2022-10-17T07:41:07.079Z,10.30
2022-10-17T07:43:42.023Z,6.05
2022-10-17T07:46:15.791Z,10.13
2022-10-17T07:48:50.525Z,7.50
2022-10-17T07:51:25.837Z,7.57
2022-10-17T07:53:58.584Z,7.70
2022-10-17T07:56:31.063Z,7.63
2022-10-17T07:59:06.842Z,7.57
2022-10-17T08:01:42.168Z,6.50
2022-10-17T08:04:17.317Z,6.68
2022-10-17T08:06:53.405Z,7.00
2022-10-17T08:09:29.313Z,6.60
2022-10-17T08:12:01.821Z,7.05
2022-10-17T08:14:34.530Z,6.97
2022-10-17T08:17:06.984Z,8.88
2022-10-17T08:19:40.777Z,6.78
2022-10-17T08:22:13.603Z,6.65
2022-10-17T08:24:46.679Z,6.57
2022-10-17T08:27:24.400Z,6.20
2022-10-17T08:29:57.253Z,6.28
2022-10-17T08:32:31.256Z,6.32
2022-10-17T08:35:04.632Z,7.38
2022-10-17T08:37:37.609Z,6.32
2022-10-17T08:40:14.150Z,6.63
2022-10-17T08:42:56.166Z,6.93
2022-10-17T08:45:47.465Z,6.20
2022-10-17T08:48:21.656Z,6.90
2022-10-17T08:50:57.066Z,6.83
2022-10-17T08:53:29.545Z,6.60
2022-10-17T08:56:19.994Z,6.57
2022-10-17T08:58:57.224Z,6.28
2022-10-17T09:01:35.457Z,6.53
2022-10-17T09:04:22.611Z,6.07
2022-10-17T09:06:58.696Z,6.37
2022-10-17T09:09:40.503Z,6.85
2022-10-17T09:12:16.604Z,6.35
2022-10-17T09:15:03.324Z,6.47
2022-10-17T09:17:53.117Z,6.40
2022-10-17T09:20:27.482Z,6.45
2022-10-17T09:23:03.095Z,7.40
2022-10-17T09:25:41.883Z,6.78
2022-10-17T09:28:19.798Z,7.15
2022-10-17T09:30:58.545Z,6.60
2022-10-17T09:33:53.353Z,6.57
2022-10-17T09:36:31.735Z,7.85
2022-10-17T09:39:15.344Z,7.50
2022-10-17T09:41:49.757Z,7.13
2022-10-17T09:44:33.330Z,7.00
2022-10-17T09:47:11.651Z,6.97
2022-10-17T09:49:45.543Z,7.10
2022-10-17T09:52:20.161Z,7.28
2022-10-17T09:54:54.567Z,6.80
2022-10-17T09:57:27.085Z,7.10
2022-10-17T10:00:01.815Z,6.87
2022-10-17T10:02:41.021Z,6.85
2022-10-17T10:05:18.690Z,6.30
2022-10-17T10:08:13.114Z,6.63
2022-10-17T10:10:46.265Z,6.45
2022-10-17T10:13:22.583Z,6.97
2022-10-17T10:16:12.885Z,6.33
2022-10-17T10:18:47.496Z,6.15
2022-10-17T10:21:27.329Z,6.43
2022-10-17T10:23:59.855Z,6.50
2022-10-17T10:26:40.595Z,5.82
2022-10-17T10:29:32.614Z,6.22
2022-10-17T10:32:24.312Z,6.10
2022-10-17T10:34:56.969Z,5.87
2022-10-17T10:37:50.020Z,6.07
2022-10-17T10:40:32.997Z,6.47
2022-10-17T10:43:06.625Z,6.03
2022-10-17T10:45:54.350Z,6.07
2022-10-17T10:48:30.604Z,6.45
2022-10-17T10:51:10.754Z,5.72
2022-10-17T10:53:46.144Z,6.17
2022-10-17T10:56:21.700Z,6.63
2022-10-17T10:59:03.709Z,6.13
2022-10-17T11:01:45.085Z,9.85
2022-10-17T11:04:27.828Z,7.00
2022-10-17T11:07:20.636Z,6.55
2022-10-17T11:09:55.564Z,5.80
2022-10-17T11:12:29.342Z,6.28
2022-10-17T11:15:15.935Z,5.63
2022-10-17T11:17:51.281Z,5.45
2022-10-17T11:20:27.330Z,5.35
2022-10-17T11:23:03.892Z,5.20
2022-10-17T11:25:38.306Z,5.70
2022-10-17T11:28:13.862Z,5.20
2022-10-17T11:30:58.371Z,4.80
2022-10-17T11:33:49.259Z,4.97
2022-10-17T11:36:25.119Z,4.50
2022-10-17T11:39:02.404Z,4.88
2022-10-17T11:41:37.952Z,4.55
2022-10-17T11:44:36.800Z,4.28
2022-10-17T11:47:28.004Z,4.47
2022-10-17T11:53:17.543Z,4.25
2022-10-17T11:55:51.380Z,4.05
2022-10-17T11:58:56.698Z,4.10
2022-10-17T12:01:40.347Z,4.22
2022-10-17T12:04:36.488Z,3.67
2022-10-17T12:07:14.240Z,4.18
2022-10-17T12:09:50.130Z,4.07
2022-10-17T12:12:30.217Z,4.03
2022-10-17T12:15:25.603Z,4.13
2022-10-17T12:18:03.228Z,4.25
2022-10-17T12:20:37.134Z,3.60
2022-10-17T12:23:12.977Z,3.97
2022-10-17T12:25:55.994Z,3.70
2022-10-17T12:28:32.083Z,4.25
2022-10-17T12:31:10.215Z,4.30
2022-10-17T12:33:50.599Z,4.03
2022-10-17T12:36:23.332Z,4.03
2022-10-17T12:39:02.102Z,4.18
2022-10-17T12:41:41.037Z,3.67
2022-10-17T12:44:13.973Z,4.30
2022-10-17T12:46:51.538Z,4.10
2022-10-17T12:49:43.411Z,3.90
2022-10-17T12:52:16.256Z,3.70
2022-10-17T12:55:07.272Z,3.83
2022-10-17T12:58:02.834Z,3.55
2022-10-17T13:00:59.602Z,3.72
2022-10-17T13:03:42.947Z,3.85
2022-10-17T13:06:26.194Z,3.88
2022-10-17T13:09:04.120Z,3.70
2022-10-17T13:11:39.159Z,4.30
2022-10-17T13:14:13.644Z,4.18
2022-10-17T13:16:54.021Z,4.28
2022-10-17T13:19:30.424Z,3.80
2022-10-17T13:22:07.039Z,3.30
2022-10-17T13:24:41.071Z,4.87
2022-10-17T13:27:22.582Z,3.40
2022-10-17T13:29:56.671Z,4.28
2022-10-17T13:32:36.671Z,3.90
2022-10-17T13:35:14.409Z,3.33
2022-10-17T13:37:51.653Z,3.63
2022-10-17T13:40:44.436Z,3.30
2022-10-17T13:43:22.064Z,4.57
2022-10-17T13:45:58.108Z,4.10
2022-10-17T13:48:36.453Z,3.15
2022-10-17T13:51:11.136Z,2.70
2022-10-17T13:53:44.862Z,3.15
2022-10-17T13:56:29.210Z,3.45
2022-10-17T13:59:08.475Z,2.92
2022-10-17T14:01:41.378Z,3.03
2022-10-17T14:04:19.875Z,2.92
2022-10-17T14:06:53.376Z,3.63
2022-10-17T14:09:27.209Z,3.30
2022-10-17T14:12:06.941Z,3.08
2022-10-17T14:15:08.577Z,3.53
2022-10-17T14:17:34.771Z,3.35
2022-10-17T14:23:21.894Z,2.63
2022-10-17T14:26:05.044Z,3.15
2022-10-17T14:28:38.272Z,3.33
